sensor_id;sensor_type;location;lat;lon;timestamp;temperature;humidity
18797;DHT22;9526;52.612;13.300;2022-09-01T00:02:27;15.00;99.90
18797;DHT22;9526;52.612;13.300;2022-09-01T00:04:51;15.00;99.90
18797;DHT22;9526;52.612;13.300;2022-09-01T00:07:19;15.00;99.90
18797;DHT22;9526;52.612;13.300;2022-09-01T00:09:43;15.00;99.90
18797;DHT22;9526;52.612;13.300;2022-09-01T00:12:08;15.00;99.90
18797;DHT22;9526;52.612;13.300;2022-09-01T00:14:35;15.00;99.90
18797;DHT22;9526;52.612;13.300;2022-09-01T00:17:05;15.00;99.90
18797;DHT22;9526;52.612;13.300;2022-09-01T00:19:31;15.00;99.90
18797;DHT22;9526;52.612;13.300;2022-09-01T00:21:57;15.00;99.90
18797;DHT22;9526;52.612;13.300;2022-09-01T00:24:22;15.00;99.90
18797;DHT22;9526;52.612;13.300;2022-09-01T00:26:47;15.00;99.90
18797;DHT22;9526;52.612;13.300;2022-09-01T00:29:11;14.90;99.90
18797;DHT22;9526;52.612;13.300;2022-09-01T00:31:36;14.90;99.90
18797;DHT22;9526;52.612;13.300;2022-09-01T00:34:00;14.90;99.90
18797;DHT22;9526;52.612;13.300;2022-09-01T00:36:26;14.90;99.90
18797;DHT22;9526;52.612;13.300;2022-09-01T00:38:50;14.90;99.90
18797;DHT22;9526;52.612;13.300;2022-09-01T00:41:14;14.80;99.90
18797;DHT22;9526;52.612;13.300;2022-09-01T00:43:41;14.80;99.90
18797;DHT22;9526;52.612;13.300;2022-09-01T00:46:09;14.80;99.90
18797;DHT22;9526;52.612;13.300;2022-09-01T00:48:39;14.90;99.90
18797;DHT22;9526;52.612;13.300;2022-09-01T00:51:04;14.90;99.90
18797;DHT22;9526;52.612;13.300;2022-09-01T00:53:31;14.90;99.90
18797;DHT22;9526;52.612;13.300;2022-09-01T00:55:56;14.80;99.90
18797;DHT22;9526;52.612;13.300;2022-09-01T00:58:20;14.80;99.90
18797;DHT22;9526;52.612;13.300;2022-09-01T01:00:46;14.80;99.90
18797;DHT22;9526;52.612;13.300;2022-09-01T01:03:13;14.80;99.90
18797;DHT22;9526;52.612;13.300;2022-09-01T01:05:39;14.80;99.90
18797;DHT22;9526;52.612;13.300;2022-09-01T01:08:08;14.80;99.90
18797;DHT22;9526;52.612;13.300;2022-09-01T01:10:37;14.70;99.90
18797;DHT22;9526;52.612;13.300;2022-09-01T01:13:06;14.70;99.90
18797;DHT22;9526;52.612;13.300;2022-09-01T01:15:31;14.70;99.90
18797;DHT22;9526;52.612;13.300;2022-09-01T01:17:55;14.70;99.90
18797;DHT22;9526;52.612;13.300;2022-09-01T01:20:20;14.70;99.90
18797;DHT22;9526;52.612;13.300;2022-09-01T01:23:09;14.70;99.90
18797;DHT22;9526;52.612;13.300;2022-09-01T01:25:41;14.70;99.90
18797;DHT22;9526;52.612;13.300;2022-09-01T01:28:12;14.60;99.90
18797;DHT22;9526;52.612;13.300;2022-09-01T01:30:39;14.60;99.90
18797;DHT22;9526;52.612;13.300;2022-09-01T01:33:05;14.60;99.90
18797;DHT22;9526;52.612;13.300;2022-09-01T01:35:30;14.60;99.90
18797;DHT22;9526;52.612;13.300;2022-09-01T01:37:54;14.60;99.90
18797;DHT22;9526;52.612;13.300;2022-09-01T01:40:19;14.60;99.90
18797;DHT22;9526;52.612;13.300;2022-09-01T01:42:47;14.60;99.90
18797;DHT22;9526;52.612;13.300;2022-09-01T01:45:12;14.60;99.90
18797;DHT22;9526;52.612;13.300;2022-09-01T01:47:38;14.60;99.90
18797;DHT22;9526;52.612;13.300;2022-09-01T01:50:04;14.60;99.90
18797;DHT22;9526;52.612;13.300;2022-09-01T01:52:31;14.60;99.90
18797;DHT22;9526;52.612;13.300;2022-09-01T01:54:58;14.60;99.90
18797;DHT22;9526;52.612;13.300;2022-09-01T01:57:26;14.60;99.90
18797;DHT22;9526;52.612;13.300;2022-09-01T01:59:54;14.50;99.90
18797;DHT22;9526;52.612;13.300;2022-09-01T02:02:18;14.50;99.90
18797;DHT22;9526;52.612;13.300;2022-09-01T02:04:42;14.50;99.90
18797;DHT22;9526;52.612;13.300;2022-09-01T02:07:09;14.40;99.90
18797;DHT22;9526;52.612;13.300;2022-09-01T02:09:34;14.40;99.90
18797;DHT22;9526;52.612;13.300;2022-09-01T02:12:01;14.40;99.90
18797;DHT22;9526;52.612;13.300;2022-09-01T02:14:26;14.30;99.90
18797;DHT22;9526;52.612;13.300;2022-09-01T02:16:51;14.30;99.90
18797;DHT22;9526;52.612;13.300;2022-09-01T02:19:17;14.30;99.90
18797;DHT22;9526;52.612;13.300;2022-09-01T02:21:42;14.30;99.90
18797;DHT22;9526;52.612;13.300;2022-09-01T02:24:08;14.20;99.90
18797;DHT22;9526;52.612;13.300;2022-09-01T02:26:35;14.20;99.90
18797;DHT22;9526;52.612;13.300;2022-09-01T02:29:03;14.20;99.90
18797;DHT22;9526;52.612;13.300;2022-09-01T02:31:32;14.10;99.90
18797;DHT22;9526;52.612;13.300;2022-09-01T02:34:01;14.10;99.90
18797;DHT22;9526;52.612;13.300;2022-09-01T02:36:26;14.10;99.90
18797;DHT22;9526;52.612;13.300;2022-09-01T02:38:54;14.00;99.90
18797;DHT22;9526;52.612;13.300;2022-09-01T02:41:20;14.00;99.90
18797;DHT22;9526;52.612;13.300;2022-09-01T02:43:44;13.90;99.90
18797;DHT22;9526;52.612;13.300;2022-09-01T02:46:09;13.90;99.90
18797;DHT22;9526;52.612;13.300;2022-09-01T02:48:35;13.80;99.90
18797;DHT22;9526;52.612;13.300;2022-09-01T02:51:04;13.80;99.90
18797;DHT22;9526;52.612;13.300;2022-09-01T02:53:29;13.80;99.90
18797;DHT22;9526;52.612;13.300;2022-09-01T02:55:57;13.70;99.90
18797;DHT22;9526;52.612;13.300;2022-09-01T02:58:21;13.70;99.90
18797;DHT22;9526;52.612;13.300;2022-09-01T03:00:52;13.60;99.90
18797;DHT22;9526;52.612;13.300;2022-09-01T03:03:16;13.60;99.90
18797;DHT22;9526;52.612;13.300;2022-09-01T03:05:42;13.50;99.90
18797;DHT22;9526;52.612;13.300;2022-09-01T03:08:10;13.50;99.90
18797;DHT22;9526;52.612;13.300;2022-09-01T03:10:38;13.40;99.90
18797;DHT22;9526;52.612;13.300;2022-09-01T03:13:05;13.40;99.90
18797;DHT22;9526;52.612;13.300;2022-09-01T03:15:30;13.30;99.90
18797;DHT22;9526;52.612;13.300;2022-09-01T03:17:55;13.30;99.90
18797;DHT22;9526;52.612;13.300;2022-09-01T03:20:21;13.20;99.90
18797;DHT22;9526;52.612;13.300;2022-09-01T03:22:45;13.20;99.90
18797;DHT22;9526;52.612;13.300;2022-09-01T03:25:11;13.10;99.90
18797;DHT22;9526;52.612;13.300;2022-09-01T03:27:35;13.10;99.90
18797;DHT22;9526;52.612;13.300;2022-09-01T03:29:59;13.00;99.90
18797;DHT22;9526;52.612;13.300;2022-09-01T03:32:23;13.00;99.90
18797;DHT22;9526;52.612;13.300;2022-09-01T03:34:47;13.00;99.90
18797;DHT22;9526;52.612;13.300;2022-09-01T03:37:12;12.90;99.90
18797;DHT22;9526;52.612;13.300;2022-09-01T03:39:36;12.90;99.90
18797;DHT22;9526;52.612;13.300;2022-09-01T03:42:02;12.80;99.90
18797;DHT22;9526;52.612;13.300;2022-09-01T03:44:26;12.80;99.90
18797;DHT22;9526;52.612;13.300;2022-09-01T03:46:50;12.70;99.90
18797;DHT22;9526;52.612;13.300;2022-09-01T03:49:15;12.60;99.90
18797;DHT22;9526;52.612;13.300;2022-09-01T03:51:46;12.60;99.90
18797;DHT22;9526;52.612;13.300;2022-09-01T03:54:11;12.60;99.90
18797;DHT22;9526;52.612;13.300;2022-09-01T03:56:35;12.50;99.90
18797;DHT22;9526;52.612;13.300;2022-09-01T03:59:08;12.50;99.90
18797;DHT22;9526;52.612;13.300;2022-09-01T04:01:39;12.40;99.90
18797;DHT22;9526;52.612;13.300;2022-09-01T04:04:04;12.40;99.90
18797;DHT22;9526;52.612;13.300;2022-09-01T04:06:28;12.40;99.90
18797;DHT22;9526;52.612;13.300;2022-09-01T04:08:53;12.30;99.90
18797;DHT22;9526;52.612;13.300;2022-09-01T04:11:28;12.30;99.90
18797;DHT22;9526;52.612;13.300;2022-09-01T04:13:53;12.30;99.90
18797;DHT22;9526;52.612;13.300;2022-09-01T04:16:20;12.20;99.90
18797;DHT22;9526;52.612;13.300;2022-09-01T04:19:03;12.10;99.90
18797;DHT22;9526;52.612;13.300;2022-09-01T04:21:37;12.10;99.90
18797;DHT22;9526;52.612;13.300;2022-09-01T04:24:01;12.10;99.90
18797;DHT22;9526;52.612;13.300;2022-09-01T04:26:27;12.10;99.90
18797;DHT22;9526;52.612;13.300;2022-09-01T04:28:52;12.00;99.90
18797;DHT22;9526;52.612;13.300;2022-09-01T04:31:20;12.00;99.90
18797;DHT22;9526;52.612;13.300;2022-09-01T04:33:47;12.00;99.90
18797;DHT22;9526;52.612;13.300;2022-09-01T04:36:17;12.00;99.90
18797;DHT22;9526;52.612;13.300;2022-09-01T04:38:44;12.00;99.90
18797;DHT22;9526;52.612;13.300;2022-09-01T04:41:08;12.00;99.90
18797;DHT22;9526;52.612;13.300;2022-09-01T04:43:37;12.00;99.90
18797;DHT22;9526;52.612;13.300;2022-09-01T04:46:01;12.10;99.90
18797;DHT22;9526;52.612;13.300;2022-09-01T04:48:26;12.00;99.90
18797;DHT22;9526;52.612;13.300;2022-09-01T04:50:52;12.00;99.90
18797;DHT22;9526;52.612;13.300;2022-09-01T04:53:22;12.10;99.90
18797;DHT22;9526;52.612;13.300;2022-09-01T04:55:49;12.10;99.90
18797;DHT22;9526;52.612;13.300;2022-09-01T04:58:18;12.20;99.90
18797;DHT22;9526;52.612;13.300;2022-09-01T05:00:44;12.10;99.90
18797;DHT22;9526;52.612;13.300;2022-09-01T05:03:12;12.10;99.90
18797;DHT22;9526;52.612;13.300;2022-09-01T05:05:50;12.20;99.90
18797;DHT22;9526;52.612;13.300;2022-09-01T05:08:18;12.20;99.90
18797;DHT22;9526;52.612;13.300;2022-09-01T05:10:49;12.30;99.90
18797;DHT22;9526;52.612;13.300;2022-09-01T05:13:25;12.30;99.90
18797;DHT22;9526;52.612;13.300;2022-09-01T05:16:00;12.30;99.90
18797;DHT22;9526;52.612;13.300;2022-09-01T05:18:25;12.40;99.90
18797;DHT22;9526;52.612;13.300;2022-09-01T05:20:51;12.40;99.90
18797;DHT22;9526;52.612;13.300;2022-09-01T05:23:15;12.40;99.90
18797;DHT22;9526;52.612;13.300;2022-09-01T05:25:42;12.50;99.90
18797;DHT22;9526;52.612;13.300;2022-09-01T05:28:07;12.50;99.90
18797;DHT22;9526;52.612;13.300;2022-09-01T05:30:33;12.50;99.90
18797;DHT22;9526;52.612;13.300;2022-09-01T05:32:57;12.70;99.90
18797;DHT22;9526;52.612;13.300;2022-09-01T05:35:22;12.70;99.90
18797;DHT22;9526;52.612;13.300;2022-09-01T05:37:56;12.80;99.90
18797;DHT22;9526;52.612;13.300;2022-09-01T05:40:20;12.80;99.90
18797;DHT22;9526;52.612;13.300;2022-09-01T05:42:45;12.80;99.90
18797;DHT22;9526;52.612;13.300;2022-09-01T05:45:10;12.90;99.90
18797;DHT22;9526;52.612;13.300;2022-09-01T05:47:35;13.00;99.90
18797;DHT22;9526;52.612;13.300;2022-09-01T05:49:59;13.10;99.90
18797;DHT22;9526;52.612;13.300;2022-09-01T05:52:23;13.20;99.90
18797;DHT22;9526;52.612;13.300;2022-09-01T05:54:49;13.20;99.90
18797;DHT22;9526;52.612;13.300;2022-09-01T05:57:13;13.30;99.90
18797;DHT22;9526;52.612;13.300;2022-09-01T05:59:55;13.40;99.90
18797;DHT22;9526;52.612;13.300;2022-09-01T06:02:21;13.50;99.90
18797;DHT22;9526;52.612;13.300;2022-09-01T06:04:45;13.50;99.90
18797;DHT22;9526;52.612;13.300;2022-09-01T06:07:17;13.70;99.90
18797;DHT22;9526;52.612;13.300;2022-09-01T06:09:49;13.90;99.90
18797;DHT22;9526;52.612;13.300;2022-09-01T06:12:16;14.20;99.90
18797;DHT22;9526;52.612;13.300;2022-09-01T06:14:46;14.80;99.90
18797;DHT22;9526;52.612;13.300;2022-09-01T06:17:11;15.30;99.90
18797;DHT22;9526;52.612;13.300;2022-09-01T06:19:38;15.90;99.90
18797;DHT22;9526;52.612;13.300;2022-09-01T06:22:02;16.40;99.90
18797;DHT22;9526;52.612;13.300;2022-09-01T06:24:26;17.10;99.90
18797;DHT22;9526;52.612;13.300;2022-09-01T06:26:52;17.70;99.90
18797;DHT22;9526;52.612;13.300;2022-09-01T06:29:16;17.80;99.90
18797;DHT22;9526;52.612;13.300;2022-09-01T06:31:44;18.30;99.90
18797;DHT22;9526;52.612;13.300;2022-09-01T06:34:14;18.60;99.90
18797;DHT22;9526;52.612;13.300;2022-09-01T06:36:39;19.10;99.90
18797;DHT22;9526;52.612;13.300;2022-09-01T06:39:04;19.50;99.90
18797;DHT22;9526;52.612;13.300;2022-09-01T06:41:29;20.00;99.90
18797;DHT22;9526;52.612;13.300;2022-09-01T06:43:54;20.40;99.90
18797;DHT22;9526;52.612;13.300;2022-09-01T06:46:19;20.80;99.90
18797;DHT22;9526;52.612;13.300;2022-09-01T06:48:43;21.30;99.90
18797;DHT22;9526;52.612;13.300;2022-09-01T06:51:08;21.40;99.90
18797;DHT22;9526;52.612;13.300;2022-09-01T06:53:39;21.70;99.90
18797;DHT22;9526;52.612;13.300;2022-09-01T06:56:06;21.70;99.90
18797;DHT22;9526;52.612;13.300;2022-09-01T06:58:31;22.10;99.90
18797;DHT22;9526;52.612;13.300;2022-09-01T07:00:57;22.20;99.90
18797;DHT22;9526;52.612;13.300;2022-09-01T07:03:21;22.00;99.90
18797;DHT22;9526;52.612;13.300;2022-09-01T07:05:57;21.90;99.90
18797;DHT22;9526;52.612;13.300;2022-09-01T07:09:00;21.80;99.90
18797;DHT22;9526;52.612;13.300;2022-09-01T07:12:04;21.50;99.90
18797;DHT22;9526;52.612;13.300;2022-09-01T07:14:46;20.90;99.90
18797;DHT22;9526;52.612;13.300;2022-09-01T07:17:31;20.50;99.90
18797;DHT22;9526;52.612;13.300;2022-09-01T07:19:55;20.40;99.90
18797;DHT22;9526;52.612;13.300;2022-09-01T07:22:39;20.20;99.90
18797;DHT22;9526;52.612;13.300;2022-09-01T07:25:23;20.00;99.90
18797;DHT22;9526;52.612;13.300;2022-09-01T07:28:17;19.90;99.90
18797;DHT22;9526;52.612;13.300;2022-09-01T07:30:47;19.90;99.90
18797;DHT22;9526;52.612;13.300;2022-09-01T07:33:18;19.80;99.90
18797;DHT22;9526;52.612;13.300;2022-09-01T07:36:06;19.50;99.90
18797;DHT22;9526;52.612;13.300;2022-09-01T07:38:51;19.30;99.90
18797;DHT22;9526;52.612;13.300;2022-09-01T07:41:44;19.40;99.90
18797;DHT22;9526;52.612;13.300;2022-09-01T07:44:47;19.30;99.90
18797;DHT22;9526;52.612;13.300;2022-09-01T07:47:37;19.30;99.90
18797;DHT22;9526;52.612;13.300;2022-09-01T07:50:18;19.20;99.90
18797;DHT22;9526;52.612;13.300;2022-09-01T07:53:02;19.00;99.90
18797;DHT22;9526;52.612;13.300;2022-09-01T07:55:26;18.90;99.90
18797;DHT22;9526;52.612;13.300;2022-09-01T07:57:50;18.80;99.90
18797;DHT22;9526;52.612;13.300;2022-09-01T08:00:14;18.80;99.90
18797;DHT22;9526;52.612;13.300;2022-09-01T08:02:43;18.80;99.90
18797;DHT22;9526;52.612;13.300;2022-09-01T08:05:13;18.70;99.90
18797;DHT22;9526;52.612;13.300;2022-09-01T08:07:40;18.80;99.90
18797;DHT22;9526;52.612;13.300;2022-09-01T08:10:25;18.70;99.90
18797;DHT22;9526;52.612;13.300;2022-09-01T08:12:49;18.70;99.90
18797;DHT22;9526;52.612;13.300;2022-09-01T08:15:21;18.70;99.90
18797;DHT22;9526;52.612;13.300;2022-09-01T08:18:05;18.70;99.90
18797;DHT22;9526;52.612;13.300;2022-09-01T08:20:30;18.60;99.90
18797;DHT22;9526;52.612;13.300;2022-09-01T08:23:18;18.60;99.90
18797;DHT22;9526;52.612;13.300;2022-09-01T08:25:46;18.80;99.90
18797;DHT22;9526;52.612;13.300;2022-09-01T08:28:13;18.80;99.90
18797;DHT22;9526;52.612;13.300;2022-09-01T08:30:47;18.80;99.90
18797;DHT22;9526;52.612;13.300;2022-09-01T08:33:17;18.90;99.90
18797;DHT22;9526;52.612;13.300;2022-09-01T08:35:44;19.00;99.90
18797;DHT22;9526;52.612;13.300;2022-09-01T08:38:10;19.00;99.90
18797;DHT22;9526;52.612;13.300;2022-09-01T08:40:38;19.00;99.90
18797;DHT22;9526;52.612;13.300;2022-09-01T08:43:11;18.90;99.90
18797;DHT22;9526;52.612;13.300;2022-09-01T08:45:44;18.90;99.90
18797;DHT22;9526;52.612;13.300;2022-09-01T08:48:14;18.90;99.90
18797;DHT22;9526;52.612;13.300;2022-09-01T08:51:06;18.90;99.90
18797;DHT22;9526;52.612;13.300;2022-09-01T08:54:17;18.90;99.90
18797;DHT22;9526;52.612;13.300;2022-09-01T08:56:56;19.00;99.90
18797;DHT22;9526;52.612;13.300;2022-09-01T08:59:42;19.00;99.90
18797;DHT22;9526;52.612;13.300;2022-09-01T09:02:36;19.00;99.90
18797;DHT22;9526;52.612;13.300;2022-09-01T09:05:12;19.00;99.90
18797;DHT22;9526;52.612;13.300;2022-09-01T09:08:06;19.20;99.90
18797;DHT22;9526;52.612;13.300;2022-09-01T09:10:44;19.20;99.90
18797;DHT22;9526;52.612;13.300;2022-09-01T09:13:19;19.20;99.90
18797;DHT22;9526;52.612;13.300;2022-09-01T09:15:51;19.30;99.90
18797;DHT22;9526;52.612;13.300;2022-09-01T09:18:34;19.30;99.90
18797;DHT22;9526;52.612;13.300;2022-09-01T09:21:18;19.40;99.90
18797;DHT22;9526;52.612;13.300;2022-09-01T09:23:46;19.50;99.90
18797;DHT22;9526;52.612;13.300;2022-09-01T09:26:17;19.60;99.90
18797;DHT22;9526;52.612;13.300;2022-09-01T09:28:44;19.70;99.90
18797;DHT22;9526;52.612;13.300;2022-09-01T09:31:29;19.80;99.90
18797;DHT22;9526;52.612;13.300;2022-09-01T09:33:57;19.90;99.90
18797;DHT22;9526;52.612;13.300;2022-09-01T09:36:23;20.10;99.90
18797;DHT22;9526;52.612;13.300;2022-09-01T09:39:04;20.10;99.90
18797;DHT22;9526;52.612;13.300;2022-09-01T09:41:30;20.20;99.90
18797;DHT22;9526;52.612;13.300;2022-09-01T09:43:57;20.30;99.90
18797;DHT22;9526;52.612;13.300;2022-09-01T09:46:26;20.50;99.90
18797;DHT22;9526;52.612;13.300;2022-09-01T09:49:10;20.60;99.90
18797;DHT22;9526;52.612;13.300;2022-09-01T09:51:36;20.70;99.90
18797;DHT22;9526;52.612;13.300;2022-09-01T09:54:12;20.70;99.90
18797;DHT22;9526;52.612;13.300;2022-09-01T09:56:38;20.90;99.90
18797;DHT22;9526;52.612;13.300;2022-09-01T09:59:18;21.20;99.90
18797;DHT22;9526;52.612;13.300;2022-09-01T10:02:24;21.30;99.90
18797;DHT22;9526;52.612;13.300;2022-09-01T10:04:50;21.60;99.90
18797;DHT22;9526;52.612;13.300;2022-09-01T10:07:29;21.70;99.90
18797;DHT22;9526;52.612;13.300;2022-09-01T10:09:58;21.90;99.90
18797;DHT22;9526;52.612;13.300;2022-09-01T10:12:23;22.00;99.90
18797;DHT22;9526;52.612;13.300;2022-09-01T10:14:51;22.20;99.90
18797;DHT22;9526;52.612;13.300;2022-09-01T10:17:21;22.40;97.80
18797;DHT22;9526;52.612;13.300;2022-09-01T10:19:52;22.30;98.70
18797;DHT22;9526;52.612;13.300;2022-09-01T10:22:18;22.30;98.50
18797;DHT22;9526;52.612;13.300;2022-09-01T10:24:42;22.00;98.60
18797;DHT22;9526;52.612;13.300;2022-09-01T10:27:16;22.40;99.90
18797;DHT22;9526;52.612;13.300;2022-09-01T10:29:45;22.40;97.70
18797;DHT22;9526;52.612;13.300;2022-09-01T10:32:16;22.40;98.70
18797;DHT22;9526;52.612;13.300;2022-09-01T10:34:59;22.70;99.90
18797;DHT22;9526;52.612;13.300;2022-09-01T10:37:35;23.10;96.70
18797;DHT22;9526;52.612;13.300;2022-09-01T10:43:32;23.20;97.50
18797;DHT22;9526;52.612;13.300;2022-09-01T10:45:59;23.40;99.50
18797;DHT22;9526;52.612;13.300;2022-09-01T10:48:32;23.30;96.90
18797;DHT22;9526;52.612;13.300;2022-09-01T10:51:40;23.30;97.30
18797;DHT22;9526;52.612;13.300;2022-09-01T10:57:29;23.30;94.80
18797;DHT22;9526;52.612;13.300;2022-09-01T11:00:42;23.00;92.50
18797;DHT22;9526;52.612;13.300;2022-09-01T11:03:48;22.60;92.30
18797;DHT22;9526;52.612;13.300;2022-09-01T11:06:52;22.60;92.90
18797;DHT22;9526;52.612;13.300;2022-09-01T11:09:38;22.50;93.00
18797;DHT22;9526;52.612;13.300;2022-09-01T11:15:32;22.80;95.60
18797;DHT22;9526;52.612;13.300;2022-09-01T11:17:58;23.00;94.30
18797;DHT22;9526;52.612;13.300;2022-09-01T11:20:25;23.20;92.00
18797;DHT22;9526;52.612;13.300;2022-09-01T11:22:59;23.20;90.30
18797;DHT22;9526;52.612;13.300;2022-09-01T11:25:37;23.40;92.40
18797;DHT22;9526;52.612;13.300;2022-09-01T11:31:00;23.20;90.20
18797;DHT22;9526;52.612;13.300;2022-09-01T11:33:41;23.20;91.80
18797;DHT22;9526;52.612;13.300;2022-09-01T11:36:19;23.20;91.40
18797;DHT22;9526;52.612;13.300;2022-09-01T11:38:49;23.50;93.10
18797;DHT22;9526;52.612;13.300;2022-09-01T11:41:24;23.70;92.90
18797;DHT22;9526;52.612;13.300;2022-09-01T11:43:53;23.40;93.10
18797;DHT22;9526;52.612;13.300;2022-09-01T11:46:25;23.00;93.30
18797;DHT22;9526;52.612;13.300;2022-09-01T11:48:50;22.70;92.70
18797;DHT22;9526;52.612;13.300;2022-09-01T11:51:15;22.60;93.90
18797;DHT22;9526;52.612;13.300;2022-09-01T11:53:40;22.60;94.30
18797;DHT22;9526;52.612;13.300;2022-09-01T11:56:13;22.60;94.20
18797;DHT22;9526;52.612;13.300;2022-09-01T11:58:38;22.40;93.80
18797;DHT22;9526;52.612;13.300;2022-09-01T12:01:12;22.20;94.30
18797;DHT22;9526;52.612;13.300;2022-09-01T12:03:37;22.10;93.70
18797;DHT22;9526;52.612;13.300;2022-09-01T12:06:03;22.20;94.50
18797;DHT22;9526;52.612;13.300;2022-09-01T12:08:32;22.20;95.50
18797;DHT22;9526;52.612;13.300;2022-09-01T12:11:04;22.20;95.70
18797;DHT22;9526;52.612;13.300;2022-09-01T12:13:29;22.20;95.20
18797;DHT22;9526;52.612;13.300;2022-09-01T12:15:55;22.20;95.80
18797;DHT22;9526;52.612;13.300;2022-09-01T12:18:44;22.20;95.50
18797;DHT22;9526;52.612;13.300;2022-09-01T12:21:19;22.30;94.50
18797;DHT22;9526;52.612;13.300;2022-09-01T12:23:46;22.40;95.20
18797;DHT22;9526;52.612;13.300;2022-09-01T12:26:12;22.70;96.00
18797;DHT22;9526;52.612;13.300;2022-09-01T12:28:38;22.90;94.50
18797;DHT22;9526;52.612;13.300;2022-09-01T12:31:05;23.00;93.10
18797;DHT22;9526;52.612;13.300;2022-09-01T12:33:31;23.20;92.60
18797;DHT22;9526;52.612;13.300;2022-09-01T12:36:12;23.10;92.50
18797;DHT22;9526;52.612;13.300;2022-09-01T12:38:37;23.00;92.90
18797;DHT22;9526;52.612;13.300;2022-09-01T12:41:26;23.20;92.80
18797;DHT22;9526;52.612;13.300;2022-09-01T12:43:55;23.10;92.20
18797;DHT22;9526;52.612;13.300;2022-09-01T12:46:38;23.30;92.30
18797;DHT22;9526;52.612;13.300;2022-09-01T12:49:15;23.30;92.90
18797;DHT22;9526;52.612;13.300;2022-09-01T12:51:41;23.40;92.90
18797;DHT22;9526;52.612;13.300;2022-09-01T12:54:04;23.30;94.20
18797;DHT22;9526;52.612;13.300;2022-09-01T12:56:33;23.40;95.20
18797;DHT22;9526;52.612;13.300;2022-09-01T12:59:06;23.50;93.80
18797;DHT22;9526;52.612;13.300;2022-09-01T13:01:39;23.30;92.10
18797;DHT22;9526;52.612;13.300;2022-09-01T13:04:22;23.30;93.50
18797;DHT22;9526;52.612;13.300;2022-09-01T13:06:51;23.30;92.80
18797;DHT22;9526;52.612;13.300;2022-09-01T13:09:15;23.40;93.80
18797;DHT22;9526;52.612;13.300;2022-09-01T13:11:41;23.40;92.40
18797;DHT22;9526;52.612;13.300;2022-09-01T13:14:28;23.50;93.50
18797;DHT22;9526;52.612;13.300;2022-09-01T13:16:52;23.80;93.60
18797;DHT22;9526;52.612;13.300;2022-09-01T13:19:15;23.80;92.40
18797;DHT22;9526;52.612;13.300;2022-09-01T13:21:48;24.00;95.00
18797;DHT22;9526;52.612;13.300;2022-09-01T13:24:12;24.10;90.90
18797;DHT22;9526;52.612;13.300;2022-09-01T13:26:36;23.80;92.10
18797;DHT22;9526;52.612;13.300;2022-09-01T13:29:01;23.60;91.70
18797;DHT22;9526;52.612;13.300;2022-09-01T13:31:25;23.60;92.50
18797;DHT22;9526;52.612;13.300;2022-09-01T13:33:51;23.80;92.20
18797;DHT22;9526;52.612;13.300;2022-09-01T13:36:35;23.70;92.70
18797;DHT22;9526;52.612;13.300;2022-09-01T13:39:12;23.50;91.60
18797;DHT22;9526;52.612;13.300;2022-09-01T13:41:37;23.40;92.40
18797;DHT22;9526;52.612;13.300;2022-09-01T13:44:02;23.30;92.70
18797;DHT22;9526;52.612;13.300;2022-09-01T13:46:26;23.50;95.10
18797;DHT22;9526;52.612;13.300;2022-09-01T13:48:50;23.60;92.10
18797;DHT22;9526;52.612;13.300;2022-09-01T13:51:33;23.70;93.50
18797;DHT22;9526;52.612;13.300;2022-09-01T13:53:58;23.80;91.30
18797;DHT22;9526;52.612;13.300;2022-09-01T13:56:21;23.80;91.30
18797;DHT22;9526;52.612;13.300;2022-09-01T13:58:45;23.90;92.50
18797;DHT22;9526;52.612;13.300;2022-09-01T14:01:11;24.10;93.50
18797;DHT22;9526;52.612;13.300;2022-09-01T14:03:34;23.90;90.50
18797;DHT22;9526;52.612;13.300;2022-09-01T14:05:59;23.80;90.10
18797;DHT22;9526;52.612;13.300;2022-09-01T14:08:22;23.90;91.20
18797;DHT22;9526;52.612;13.300;2022-09-01T14:10:48;23.60;90.90
18797;DHT22;9526;52.612;13.300;2022-09-01T14:13:12;23.80;92.90
18797;DHT22;9526;52.612;13.300;2022-09-01T14:15:37;23.90;91.70
18797;DHT22;9526;52.612;13.300;2022-09-01T14:18:03;23.60;91.20
18797;DHT22;9526;52.612;13.300;2022-09-01T14:20:29;23.30;91.70
18797;DHT22;9526;52.612;13.300;2022-09-01T14:22:58;23.10;91.90
18797;DHT22;9526;52.612;13.300;2022-09-01T14:25:21;23.10;94.00
18797;DHT22;9526;52.612;13.300;2022-09-01T14:27:46;23.10;93.10
18797;DHT22;9526;52.612;13.300;2022-09-01T14:30:12;23.10;94.20
18797;DHT22;9526;52.612;13.300;2022-09-01T14:32:37;23.20;92.00
18797;DHT22;9526;52.612;13.300;2022-09-01T14:35:03;23.10;92.30
18797;DHT22;9526;52.612;13.300;2022-09-01T14:37:29;22.90;92.30
18797;DHT22;9526;52.612;13.300;2022-09-01T14:39:54;23.10;92.80
18797;DHT22;9526;52.612;13.300;2022-09-01T14:42:19;23.00;92.20
18797;DHT22;9526;52.612;13.300;2022-09-01T14:44:45;23.10;94.40
18797;DHT22;9526;52.612;13.300;2022-09-01T14:47:09;23.00;92.30
18797;DHT22;9526;52.612;13.300;2022-09-01T14:49:40;23.00;91.90
18797;DHT22;9526;52.612;13.300;2022-09-01T14:52:06;22.80;91.50
18797;DHT22;9526;52.612;13.300;2022-09-01T14:54:31;22.80;92.40
18797;DHT22;9526;52.612;13.300;2022-09-01T14:56:56;22.70;92.40
18797;DHT22;9526;52.612;13.300;2022-09-01T14:59:39;22.60;90.60
18797;DHT22;9526;52.612;13.300;2022-09-01T15:02:04;22.60;91.90
18797;DHT22;9526;52.612;13.300;2022-09-01T15:04:28;22.60;90.80
18797;DHT22;9526;52.612;13.300;2022-09-01T15:06:52;22.50;91.20
18797;DHT22;9526;52.612;13.300;2022-09-01T15:09:17;22.50;92.60
18797;DHT22;9526;52.612;13.300;2022-09-01T15:11:41;22.50;92.30
18797;DHT22;9526;52.612;13.300;2022-09-01T15:14:06;22.40;91.90
18797;DHT22;9526;52.612;13.300;2022-09-01T15:16:31;22.30;92.90
18797;DHT22;9526;52.612;13.300;2022-09-01T15:19:01;22.20;94.20
18797;DHT22;9526;52.612;13.300;2022-09-01T15:21:27;22.20;94.30
18797;DHT22;9526;52.612;13.300;2022-09-01T15:23:53;22.10;93.90
18797;DHT22;9526;52.612;13.300;2022-09-01T15:26:19;22.10;94.10
18797;DHT22;9526;52.612;13.300;2022-09-01T15:28:44;22.00;95.00
18797;DHT22;9526;52.612;13.300;2022-09-01T15:31:09;21.90;94.20
18797;DHT22;9526;52.612;13.300;2022-09-01T15:33:33;21.70;94.50
18797;DHT22;9526;52.612;13.300;2022-09-01T15:35:59;21.70;94.60
18797;DHT22;9526;52.612;13.300;2022-09-01T15:38:22;21.70;94.60
18797;DHT22;9526;52.612;13.300;2022-09-01T15:40:51;21.60;94.90
18797;DHT22;9526;52.612;13.300;2022-09-01T15:43:21;21.60;94.70
18797;DHT22;9526;52.612;13.300;2022-09-01T15:45:45;21.40;93.80
18797;DHT22;9526;52.612;13.300;2022-09-01T15:48:09;21.30;94.20
18797;DHT22;9526;52.612;13.300;2022-09-01T15:50:33;21.30;95.10
18797;DHT22;9526;52.612;13.300;2022-09-01T15:52:58;21.30;94.10
18797;DHT22;9526;52.612;13.300;2022-09-01T15:55:25;21.10;94.30
18797;DHT22;9526;52.612;13.300;2022-09-01T15:57:50;21.10;95.40
18797;DHT22;9526;52.612;13.300;2022-09-01T16:00:17;20.90;94.60